Terminal Aerodrome Forecast
Issued by NWS

Home | Current Version | Previous Version | Text Only | Print | Product List | Glossary On
Versions: 1 2 3 4 5 6 7 8 9 10 11 12 13 14 15 16 17 18 19
000
FTUS44 KTSA 240500
TAFRVS
TAF
KRVS 240520Z 2406/2506 17007KT 6SM -RA OVC015
      TEMPO 2406/2410 3SM TSRA BKN015CB
     FM241000 17010KT 3SM TSRA OVC007CB
     FM241800 17010KT 5SM RA OVC015
     FM250000 17008KT P6SM BKN025 PROB30 2500/2506 6SM -RA BKN015=

USA.gov is the U.S. government's official web portal to all federal, state and local government web resources and services.